Time;durP1;ratioP1;P1;durP2;ratioP2;P2;SDS_P1;SDS_P2;PMS_P1;PMS_P2;Temp;Humidity;BMP_temperature;BMP_pressure;BME280_temperature;BME280_humidity;BME280_pressure;Samples;Min_cycle;Max_cycle;Signal;HPM_P1;HPM_P2
2021/09/10 00:00:29;;;;;;;22.92;17.85;;;20.60;99.20;;;;;;5058168;28;20481;-63
2021/09/10 00:02:55;;;;;;;19.40;17.45;;;20.50;99.30;;;;;;5061267;28;20025;-63
2021/09/10 00:05:20;;;;;;;17.63;15.88;;;20.50;99.50;;;;;;5058227;28;20496;-63
2021/09/10 00:07:46;;;;;;;17.52;15.75;;;20.50;99.60;;;;;;5045857;28;20028;-63
2021/09/10 00:10:11;;;;;;;19.05;17.05;;;20.50;99.60;;;;;;5067262;28;20302;-63
2021/09/10 00:12:37;;;;;;;18.70;16.70;;;20.40;99.70;;;;;;5065034;28;20466;-63
2021/09/10 00:15:04;;;;;;;19.35;17.33;;;20.40;99.70;;;;;;5055747;28;20546;-63
2021/09/10 00:17:29;;;;;;;19.77;17.70;;;20.40;99.80;;;;;;5058677;28;20017;-63
2021/09/10 00:19:55;;;;;;;18.92;16.92;;;20.40;99.90;;;;;;5061123;28;20384;-62
2021/09/10 00:22:20;;;;;;;18.67;16.75;;;20.30;99.90;;;;;;5066040;28;20040;-62
2021/09/10 00:24:46;;;;;;;20.40;18.30;;;20.30;99.90;;;;;;5058274;28;20024;-63
2021/09/10 00:27:11;;;;;;;22.73;19.27;;;20.20;99.90;;;;;;5067049;28;20328;-63
2021/09/10 00:29:37;;;;;;;21.80;18.27;;;20.10;99.90;;;;;;5065115;28;20017;-62
2021/09/10 00:32:03;;;;;;;21.05;18.85;;;20.10;99.90;;;;;;5043318;28;20491;-62
2021/09/10 00:34:28;;;;;;;20.95;18.70;;;20.00;99.90;;;;;;5065995;28;20099;-63
2021/09/10 00:36:54;;;;;;;21.42;18.25;;;20.00;99.90;;;;;;5063773;28;20019;-62
2021/09/10 00:39:21;;;;;;;23.00;19.55;;;20.00;99.90;;;;;;5058146;28;20025;-62
2021/09/10 00:41:47;;;;;;;21.67;18.17;;;19.90;99.90;;;;;;5060892;28;20033;-62
2021/09/10 00:44:13;;;;;;;17.77;15.88;;;19.90;99.90;;;;;;5067795;28;20108;-63
2021/09/10 00:46:38;;;;;;;20.92;18.73;;;19.90;99.90;;;;;;5056525;28;20021;-63
2021/09/10 00:49:04;;;;;;;21.25;18.42;;;19.80;99.90;;;;;;5058405;28;20068;-62
2021/09/10 00:51:30;;;;;;;20.77;18.58;;;19.90;99.90;;;;;;5063742;28;20060;-62
2021/09/10 00:53:56;;;;;;;21.98;19.33;;;19.90;99.90;;;;;;5055504;28;20017;-62
2021/09/10 00:56:21;;;;;;;18.35;16.33;;;19.90;99.90;;;;;;5060494;28;20480;-62
2021/09/10 00:58:47;;;;;;;19.85;17.75;;;19.90;99.90;;;;;;5063892;28;20054;-63
2021/09/10 01:01:12;;;;;;;21.20;18.90;;;19.90;99.90;;;;;;5063010;28;20089;-62
2021/09/10 01:03:38;;;;;;;19.30;17.15;;;19.90;99.90;;;;;;5063880;28;20020;-63
2021/09/10 01:06:04;;;;;;;20.48;18.38;;;19.90;99.90;;;;;;5040570;28;20025;-63
2021/09/10 01:08:31;;;;;;;21.70;19.35;;;19.90;99.90;;;;;;5055618;28;20028;-63
2021/09/10 01:10:59;;;;;;;20.40;18.20;;;19.90;99.90;;;;;;5043137;28;20029;-62
2021/09/10 01:13:25;;;;;;;19.13;17.13;;;19.80;99.90;;;;;;5048788;28;20349;-62
2021/09/10 01:15:51;;;;;;;20.80;18.67;;;19.80;99.90;;;;;;5052473;28;20020;-63
2021/09/10 01:18:17;;;;;;;20.45;18.30;;;19.80;99.90;;;;;;5059969;28;20086;-63
2021/09/10 01:20:45;;;;;;;22.73;19.45;;;19.80;99.90;;;;;;5065846;28;20031;-62
2021/09/10 01:23:10;;;;;;;21.10;18.35;;;19.70;99.90;;;;;;5062198;28;20059;-63
2021/09/10 01:25:36;;;;;;;21.50;19.25;;;19.70;99.90;;;;;;5063190;28;20029;-62
2021/09/10 01:28:01;;;;;;;21.50;19.25;;;19.70;99.90;;;;;;5072523;28;20082;-63
2021/09/10 01:30:30;;;;;;;22.45;19.77;;;19.70;99.90;;;;;;5070078;28;20020;-62
2021/09/10 01:32:59;;;;;;;20.55;18.45;;;19.70;99.90;;;;;;5060690;28;20469;-62
2021/09/10 01:35:25;;;;;;;21.50;19.40;;;19.60;99.90;;;;;;5064763;28;20538;-62
2021/09/10 01:37:50;;;;;;;22.25;20.00;;;19.60;99.90;;;;;;5062326;28;20020;-62
2021/09/10 01:40:16;;;;;;;24.30;20.83;;;19.60;99.90;;;;;;5060300;28;20025;-63
2021/09/10 01:42:42;;;;;;;21.80;19.27;;;19.70;99.90;;;;;;5070342;28;20123;-62
2021/09/10 01:45:10;;;;;;;23.42;21.10;;;19.60;99.90;;;;;;5066758;28;20021;-62
2021/09/10 01:47:36;;;;;;;21.50;18.75;;;19.60;99.90;;;;;;5062121;28;20074;-62
2021/09/10 01:50:10;;;;;;;23.77;20.05;;;19.50;99.90;;;;;;5065429;28;20012;-62
2021/09/10 01:52:36;;;;;;;20.38;18.02;;;19.50;99.90;;;;;;5063942;28;20025;-62
2021/09/10 01:55:03;;;;;;;23.25;20.33;;;19.50;99.90;;;;;;5059221;28;20167;-62
2021/09/10 01:57:28;;;;;;;22.23;19.45;;;19.40;99.90;;;;;;5064447;28;20021;-62
2021/09/10 01:59:54;;;;;;;20.73;18.08;;;19.40;99.90;;;;;;5065642;28;20107;-63
2021/09/10 02:02:19;;;;;;;22.15;19.10;;;19.40;99.90;;;;;;5065569;28;20359;-62
2021/09/10 02:04:45;;;;;;;20.90;18.80;;;19.40;99.90;;;;;;5059367;28;20024;-62
2021/09/10 02:07:11;;;;;;;21.02;18.83;;;19.30;99.90;;;;;;5051611;28;20043;-62
2021/09/10 02:09:36;;;;;;;19.13;17.00;;;19.30;99.90;;;;;;5060202;28;20464;-63
2021/09/10 02:12:03;;;;;;;21.08;18.58;;;19.40;99.90;;;;;;5065782;28;20028;-62
2021/09/10 02:14:30;;;;;;;20.42;17.63;;;19.30;99.90;;;;;;5064814;28;20021;-62
2021/09/10 02:16:56;;;;;;;19.10;17.15;;;19.30;99.90;;;;;;5064833;28;20036;-62
2021/09/10 02:19:21;;;;;;;20.40;17.83;;;19.40;99.90;;;;;;5057646;28;20025;-63
2021/09/10 02:21:47;;;;;;;19.17;17.15;;;19.30;99.90;;;;;;5067018;28;20488;-62
2021/09/10 02:24:12;;;;;;;20.17;17.50;;;19.30;99.90;;;;;;5066914;28;20025;-62
2021/09/10 02:26:38;;;;;;;18.98;15.90;;;19.30;99.90;;;;;;5063432;28;20365;-62
2021/09/10 02:29:03;;;;;;;18.55;16.33;;;19.20;99.90;;;;;;5063745;28;20040;-62
2021/09/10 02:31:29;;;;;;;19.98;17.65;;;19.20;99.90;;;;;;5063226;28;20024;-62
2021/09/10 02:33:55;;;;;;;18.33;16.42;;;19.10;99.90;;;;;;5059444;28;20487;-62
2021/09/10 02:36:21;;;;;;;18.75;16.85;;;19.10;99.90;;;;;;5059971;28;20461;-62
2021/09/10 02:38:46;;;;;;;17.73;15.30;;;19.00;99.90;;;;;;5048776;28;20111;-62
2021/09/10 02:41:12;;;;;;;18.83;15.77;;;19.00;99.90;;;;;;5058238;28;20049;-62
2021/09/10 02:43:38;;;;;;;18.00;16.13;;;19.00;99.90;;;;;;5048222;28;20097;-62
2021/09/10 02:46:03;;;;;;;19.58;16.38;;;19.00;99.90;;;;;;5067900;28;20469;-62
2021/09/10 02:48:29;;;;;;;21.00;16.13;;;19.00;99.90;;;;;;5053705;28;20025;-62
2021/09/10 02:50:54;;;;;;;17.00;15.30;;;19.00;99.90;;;;;;5057807;28;20017;-62
2021/09/10 02:53:20;;;;;;;17.23;15.15;;;19.00;99.90;;;;;;5070343;28;20102;-62
2021/09/10 02:55:45;;;;;;;17.83;15.70;;;18.90;99.90;;;;;;5046729;28;20385;-62
2021/09/10 02:58:11;;;;;;;18.60;16.70;;;18.90;99.90;;;;;;5067166;28;20515;-62
2021/09/10 03:00:36;;;;;;;18.13;16.30;;;19.00;99.90;;;;;;5052917;28;20266;-62
2021/09/10 03:03:02;;;;;;;18.88;16.10;;;18.90;99.90;;;;;;5055893;28;20582;-62
2021/09/10 03:05:29;;;;;;;18.73;16.73;;;18.90;99.90;;;;;;5059046;28;20452;-62
2021/09/10 03:07:54;;;;;;;19.05;16.60;;;18.90;99.90;;;;;;5060810;28;20031;-62
2021/09/10 03:10:20;;;;;;;19.17;17.27;;;18.90;99.90;;;;;;5064625;28;20017;-62
2021/09/10 03:12:45;;;;;;;19.90;16.85;;;18.90;99.90;;;;;;5066073;28;20028;-62
2021/09/10 03:15:12;;;;;;;19.75;16.33;;;18.80;99.90;;;;;;5048846;28;20017;-62
2021/09/10 03:17:38;;;;;;;18.52;16.58;;;18.70;99.90;;;;;;5058632;28;20032;-62
2021/09/10 03:20:05;;;;;;;18.60;16.75;;;18.70;99.90;;;;;;5041857;28;20393;-62
2021/09/10 03:22:31;;;;;;;17.02;15.23;;;18.70;99.90;;;;;;5066702;28;20410;-62
2021/09/10 03:24:57;;;;;;;18.45;16.55;;;18.70;99.90;;;;;;5064625;28;20138;-62
2021/09/10 03:27:22;;;;;;;16.52;14.75;;;18.70;99.90;;;;;;5055234;28;20074;-62
2021/09/10 03:29:48;;;;;;;17.00;15.00;;;18.60;99.90;;;;;;5059738;28;20063;-62
2021/09/10 03:32:13;;;;;;;18.67;16.67;;;18.60;99.90;;;;;;5060519;28;20028;-62
2021/09/10 03:34:39;;;;;;;16.80;15.10;;;18.60;99.90;;;;;;5056034;28;20445;-62
2021/09/10 03:37:06;;;;;;;17.05;15.07;;;18.60;99.90;;;;;;5065824;28;20465;-62
2021/09/10 03:39:32;;;;;;;17.35;15.13;;;18.60;99.90;;;;;;5039852;28;20021;-62
2021/09/10 03:41:57;;;;;;;15.85;13.98;;;18.60;99.90;;;;;;5062057;28;20095;-62
2021/09/10 03:44:23;;;;;;;15.63;13.98;;;18.60;99.90;;;;;;5067303;28;20028;-62
2021/09/10 03:46:48;;;;;;;16.48;14.77;;;18.60;99.90;;;;;;5067877;28;20472;-62
2021/09/10 03:49:14;;;;;;;17.55;15.80;;;18.50;99.90;;;;;;5060034;28;20048;-62
2021/09/10 03:51:39;;;;;;;15.88;14.38;;;18.50;99.90;;;;;;5057691;28;20025;-62
2021/09/10 03:54:05;;;;;;;16.98;14.88;;;18.50;99.90;;;;;;5060349;28;20024;-62
2021/09/10 03:56:30;;;;;;;15.32;13.27;;;18.50;99.90;;;;;;5039122;28;20428;-62
2021/09/10 03:58:56;;;;;;;15.57;14.07;;;18.50;99.90;;;;;;5060129;28;20377;-62
2021/09/10 04:01:22;;;;;;;15.70;14.07;;;18.40;99.90;;;;;;5051923;28;20040;-62
2021/09/10 04:03:47;;;;;;;16.92;15.13;;;18.40;99.90;;;;;;5063307;28;20025;-62
2021/09/10 04:06:13;;;;;;;15.27;13.68;;;18.40;99.90;;;;;;5059429;28;20028;-62
2021/09/10 04:08:39;;;;;;;17.17;15.38;;;18.40;99.90;;;;;;5062606;28;20058;-62
2021/09/10 04:11:05;;;;;;;17.00;14.57;;;18.40;99.90;;;;;;5061930;28;20017;-62
2021/09/10 04:13:30;;;;;;;15.25;13.75;;;18.40;99.90;;;;;;5059825;28;20025;-62
2021/09/10 04:15:56;;;;;;;15.75;14.05;;;18.40;99.90;;;;;;5065274;28;20021;-63
2021/09/10 04:18:21;;;;;;;15.88;14.23;;;18.40;99.90;;;;;;5040442;28;20016;-62
2021/09/10 04:20:47;;;;;;;15.88;14.27;;;18.40;99.90;;;;;;5061268;28;20028;-62
2021/09/10 04:23:13;;;;;;;16.75;14.98;;;18.40;99.90;;;;;;5040892;28;20028;-62
2021/09/10 04:25:38;;;;;;;17.40;14.80;;;18.40;99.90;;;;;;5061804;28;20020;-62
2021/09/10 04:28:04;;;;;;;15.25;13.60;;;18.40;99.90;;;;;;5057759;28;20027;-62
2021/09/10 04:30:30;;;;;;;15.10;13.45;;;18.40;99.90;;;;;;5059540;28;20013;-62
2021/09/10 04:32:55;;;;;;;15.85;14.20;;;18.40;99.90;;;;;;5042595;28;20036;-62
2021/09/10 04:35:21;;;;;;;14.25;12.73;;;18.30;99.90;;;;;;5059527;28;20032;-62
2021/09/10 04:37:46;;;;;;;15.13;13.45;;;18.30;99.90;;;;;;5059077;28;20075;-62
2021/09/10 04:40:24;;;;;;;15.60;13.45;;;18.30;99.90;;;;;;5067464;28;20507;-62
2021/09/10 04:42:50;;;;;;;15.07;13.23;;;18.40;99.90;;;;;;5042832;28;20045;-62
2021/09/10 04:45:16;;;;;;;15.07;13.52;;;18.30;99.90;;;;;;5061711;28;20108;-62
2021/09/10 04:47:41;;;;;;;15.07;12.75;;;18.30;99.90;;;;;;5061525;28;20037;-62
2021/09/10 04:50:07;;;;;;;17.52;13.65;;;18.30;99.90;;;;;;5061323;28;20021;-62
2021/09/10 04:52:35;;;;;;;15.77;14.13;;;18.30;99.90;;;;;;5065932;28;20025;-62
2021/09/10 04:55:00;;;;;;;14.35;12.82;;;18.30;99.90;;;;;;5064403;28;20036;-62
2021/09/10 04:57:26;;;;;;;15.88;14.18;;;18.30;99.90;;;;;;5065815;28;20059;-62
2021/09/10 04:59:53;;;;;;;17.70;13.65;;;18.30;99.90;;;;;;5053043;28;20021;-62
2021/09/10 05:02:19;;;;;;;16.30;14.40;;;18.30;99.90;;;;;;5064200;28;20056;-62
2021/09/10 05:04:45;;;;;;;13.95;12.45;;;18.30;99.90;;;;;;5060436;28;20060;-62
2021/09/10 05:07:10;;;;;;;13.80;12.38;;;18.30;99.90;;;;;;5060577;28;20021;-62
2021/09/10 05:09:36;;;;;;;15.15;12.73;;;18.30;99.90;;;;;;5058011;28;20017;-62
2021/09/10 05:12:02;;;;;;;14.38;12.75;;;18.40;99.90;;;;;;5067879;28;20039;-62
2021/09/10 05:14:27;;;;;;;15.88;13.70;;;18.40;99.90;;;;;;5064160;28;20032;-62
2021/09/10 05:16:53;;;;;;;14.40;11.73;;;18.40;99.90;;;;;;5055535;28;20028;-61
2021/09/10 05:19:18;;;;;;;15.18;12.93;;;18.40;99.90;;;;;;5046639;28;20500;-62
2021/09/10 05:21:45;;;;;;;15.38;12.60;;;18.40;99.90;;;;;;5050779;28;20102;-62
2021/09/10 05:24:10;;;;;;;14.77;12.73;;;18.40;99.90;;;;;;5055590;28;20070;-62
2021/09/10 05:26:36;;;;;;;17.67;13.02;;;18.40;99.90;;;;;;5055629;28;20040;-62
2021/09/10 05:29:01;;;;;;;13.98;12.48;;;18.40;99.90;;;;;;5055800;28;20044;-62
2021/09/10 05:31:27;;;;;;;13.93;12.25;;;18.40;99.90;;;;;;5037408;28;20032;-62
2021/09/10 05:33:53;;;;;;;14.55;12.85;;;18.40;99.90;;;;;;5055283;28;20025;-62
2021/09/10 05:36:18;;;;;;;14.88;13.32;;;18.40;99.90;;;;;;5055446;28;20036;-62
2021/09/10 05:38:44;;;;;;;14.02;12.30;;;18.40;99.90;;;;;;5041296;28;20446;-61
2021/09/10 05:41:09;;;;;;;16.63;12.90;;;18.40;99.90;;;;;;5054911;28;20032;-62
2021/09/10 05:43:35;;;;;;;14.70;12.35;;;18.40;99.90;;;;;;5054637;28;20060;-62
2021/09/10 05:46:00;;;;;;;14.55;13.02;;;18.50;99.90;;;;;;5052726;28;20068;-61
2021/09/10 05:48:26;;;;;;;15.07;13.52;;;18.50;99.90;;;;;;5054895;28;20546;-62
2021/09/10 05:50:51;;;;;;;16.20;13.93;;;18.50;99.90;;;;;;5054610;28;20048;-62
2021/09/10 05:53:17;;;;;;;15.85;14.27;;;18.50;99.90;;;;;;5049095;28;20100;-62
2021/09/10 05:55:44;;;;;;;20.17;14.57;;;18.60;99.90;;;;;;5037176;28;20400;-61
2021/09/10 05:58:10;;;;;;;17.13;14.90;;;18.60;99.90;;;;;;5068761;28;20031;-62
2021/09/10 06:00:44;;;;;;;17.83;14.68;;;18.70;99.90;;;;;;5054671;28;20078;-62
2021/09/10 06:03:10;;;;;;;17.48;15.57;;;18.70;99.90;;;;;;5054754;28;20110;-62
2021/09/10 06:05:35;;;;;;;17.08;15.32;;;18.70;99.90;;;;;;5053768;28;20056;-61
2021/09/10 06:08:01;;;;;;;17.30;15.38;;;18.70;99.90;;;;;;5054338;28;20020;-62
2021/09/10 06:10:27;;;;;;;16.05;14.20;;;18.80;99.90;;;;;;5061387;28;20012;-61
2021/09/10 06:12:52;;;;;;;19.13;15.32;;;18.80;99.90;;;;;;5068948;28;20028;-62
2021/09/10 06:15:18;;;;;;;16.92;14.27;;;18.80;99.90;;;;;;5036676;28;20025;-62
2021/09/10 06:17:43;;;;;;;15.70;14.00;;;18.90;99.90;;;;;;5054317;28;20025;-61
2021/09/10 06:20:10;;;;;;;16.65;14.50;;;18.90;99.90;;;;;;5054783;28;20354;-61
2021/09/10 06:22:36;;;;;;;15.63;13.95;;;18.90;99.90;;;;;;5040773;28;20038;-62
2021/09/10 06:25:03;;;;;;;16.92;15.23;;;19.00;99.90;;;;;;5054388;28;20062;-62
2021/09/10 06:27:30;;;;;;;17.15;14.75;;;19.00;99.90;;;;;;5036342;28;20032;-61
2021/09/10 06:29:56;;;;;;;15.93;14.23;;;19.00;99.90;;;;;;5036741;28;20025;-62
2021/09/10 06:32:24;;;;;;;14.70;13.18;;;19.00;99.90;;;;;;5054093;28;20025;-61
2021/09/10 06:34:49;;;;;;;16.33;13.95;;;19.10;99.90;;;;;;5054165;28;20479;-61
2021/09/10 06:37:15;;;;;;;16.08;14.38;;;19.10;99.90;;;;;;5052936;28;20115;-62
2021/09/10 06:39:40;;;;;;;15.32;13.73;;;19.10;99.90;;;;;;5067274;28;20032;-62
2021/09/10 06:42:06;;;;;;;15.00;11.70;;;19.20;99.90;;;;;;5053612;28;20135;-61
2021/09/10 06:44:31;;;;;;;15.38;13.27;;;19.20;99.90;;;;;;5065942;28;20084;-62
2021/09/10 06:46:57;;;;;;;15.65;13.90;;;19.20;99.90;;;;;;5056130;28;20108;-62
2021/09/10 06:49:22;;;;;;;18.58;12.73;;;19.20;99.90;;;;;;5058293;28;20053;-62
2021/09/10 06:51:48;;;;;;;14.73;13.02;;;19.20;99.90;;;;;;5073284;28;20456;-62
2021/09/10 06:54:13;;;;;;;14.38;12.13;;;19.30;99.90;;;;;;5067517;28;20028;-62
2021/09/10 06:56:39;;;;;;;16.80;13.85;;;19.30;99.90;;;;;;5073246;28;20020;-62
2021/09/10 06:59:04;;;;;;;15.00;13.40;;;19.30;99.90;;;;;;5067990;28;20024;-62
2021/09/10 07:01:31;;;;;;;16.50;14.55;;;19.30;99.90;;;;;;5055035;28;20048;-62
2021/09/10 07:03:57;;;;;;;17.15;15.35;;;19.30;99.90;;;;;;5072832;28;20464;-62
2021/09/10 07:06:22;;;;;;;14.93;13.43;;;19.30;99.90;;;;;;5055535;28;20043;-62
2021/09/10 07:08:48;;;;;;;15.65;13.82;;;19.30;99.90;;;;;;5073018;28;20032;-62
2021/09/10 07:11:13;;;;;;;16.73;14.90;;;19.30;99.90;;;;;;5072924;28;20030;-62
2021/09/10 07:13:39;;;;;;;15.20;13.60;;;19.40;99.90;;;;;;5064826;28;20052;-62
2021/09/10 07:16:05;;;;;;;15.65;13.98;;;19.40;99.90;;;;;;5053219;28;20468;-62
2021/09/10 07:18:30;;;;;;;15.20;13.48;;;19.40;99.90;;;;;;5066723;28;20125;-62
2021/09/10 07:20:56;;;;;;;12.75;11.45;;;19.50;99.90;;;;;;5063442;28;20078;-63
2021/09/10 07:23:22;;;;;;;14.95;13.48;;;19.60;99.90;;;;;;5059847;28;20025;-63
2021/09/10 07:25:48;;;;;;;15.30;13.80;;;19.60;99.90;;;;;;5052950;28;20055;-63
2021/09/10 07:28:13;;;;;;;15.27;13.73;;;19.70;99.90;;;;;;5035438;28;20408;-62
2021/09/10 07:30:39;;;;;;;16.55;14.65;;;19.70;99.90;;;;;;5053203;28;20021;-62
2021/09/10 07:33:04;;;;;;;14.80;13.15;;;19.70;99.90;;;;;;5035163;28;20365;-63
2021/09/10 07:35:30;;;;;;;18.13;14.45;;;19.70;99.90;;;;;;5052988;28;20029;-62
2021/09/10 07:37:55;;;;;;;17.10;15.40;;;19.80;99.90;;;;;;5053151;28;20028;-62
2021/09/10 07:40:21;;;;;;;17.05;15.30;;;19.80;99.90;;;;;;5052883;28;20017;-63
2021/09/10 07:42:46;;;;;;;16.92;15.13;;;19.80;99.90;;;;;;5034867;28;20053;-62
2021/09/10 07:45:13;;;;;;;15.65;13.73;;;19.80;99.90;;;;;;5052933;28;20472;-62
2021/09/10 07:47:39;;;;;;;14.48;13.13;;;19.90;99.90;;;;;;5034774;28;20163;-62
2021/09/10 07:50:05;;;;;;;15.95;14.43;;;19.90;99.90;;;;;;5052783;28;20025;-62
2021/09/10 07:52:31;;;;;;;16.42;13.98;;;20.00;99.90;;;;;;5052266;28;20047;-62
2021/09/10 07:54:56;;;;;;;17.02;14.98;;;20.00;99.90;;;;;;5034893;28;20025;-63
2021/09/10 07:57:22;;;;;;;16.75;14.70;;;20.10;99.90;;;;;;5035834;28;20040;-63
2021/09/10 07:59:51;;;;;;;15.75;13.63;;;20.00;99.90;;;;;;5072386;28;20384;-62
2021/09/10 08:02:16;;;;;;;13.50;12.15;;;20.10;99.90;;;;;;5055956;28;20035;-63
2021/09/10 08:04:42;;;;;;;14.95;12.38;;;20.10;99.90;;;;;;5052314;28;20471;-63
2021/09/10 08:07:12;;;;;;;13.65;12.25;;;20.20;99.90;;;;;;5052910;28;20029;-63
2021/09/10 08:09:37;;;;;;;14.85;13.38;;;20.20;99.90;;;;;;5052463;28;20108;-63
2021/09/10 08:12:03;;;;;;;15.38;13.82;;;20.30;99.90;;;;;;5034618;28;20178;-63
2021/09/10 08:14:29;;;;;;;12.60;11.30;;;20.30;99.90;;;;;;5034513;28;20028;-63
2021/09/10 08:16:54;;;;;;;16.42;13.73;;;20.30;99.90;;;;;;5052574;28;20021;-62
2021/09/10 08:19:45;;;;;;;15.07;12.77;;;20.30;99.90;;;;;;5057473;28;20573;-63
2021/09/10 08:22:10;;;;;;;11.55;10.35;;;20.40;99.90;;;;;;5062890;28;20079;-63
2021/09/10 08:24:36;;;;;;;15.25;12.88;;;20.40;99.90;;;;;;5052186;28;20446;-63
2021/09/10 08:27:01;;;;;;;13.70;12.30;;;20.50;99.90;;;;;;5052505;28;20040;-63
2021/09/10 08:29:26;;;;;;;13.43;11.82;;;20.50;99.90;;;;;;5052421;28;20044;-63
2021/09/10 08:31:56;;;;;;;12.82;11.02;;;20.60;99.90;;;;;;5056200;28;20096;-63
2021/09/10 08:34:22;;;;;;;11.93;10.13;;;20.60;99.90;;;;;;5038019;28;20374;-63
2021/09/10 08:36:47;;;;;;;9.95;8.95;;;20.60;99.90;;;;;;5038158;28;20039;-63
2021/09/10 08:39:13;;;;;;;9.60;7.97;;;20.70;99.90;;;;;;5057293;28;20087;-63
2021/09/10 08:41:39;;;;;;;7.97;7.18;;;20.90;99.90;;;;;;5054523;28;20082;-63
2021/09/10 08:44:06;;;;;;;9.45;8.05;;;21.00;99.90;;;;;;5043938;28;20056;-63
2021/09/10 08:46:35;;;;;;;11.80;9.68;;;21.00;99.90;;;;;;5038357;28;20056;-63
2021/09/10 08:49:01;;;;;;;11.00;8.95;;;21.10;99.60;;;;;;5056004;28;20017;-63
2021/09/10 08:51:27;;;;;;;11.23;9.40;;;21.10;99.50;;;;;;5055982;28;20032;-63
2021/09/10 08:53:52;;;;;;;10.73;8.10;;;21.20;99.20;;;;;;5056678;28;20020;-63
2021/09/10 08:56:18;;;;;;;8.55;6.88;;;21.20;99.10;;;;;;5038397;28;20025;-63
2021/09/10 08:58:43;;;;;;;10.82;8.73;;;21.30;98.90;;;;;;5038111;28;20389;-63
2021/09/10 09:01:09;;;;;;;11.38;9.82;;;21.40;98.60;;;;;;5056002;28;20032;-63
2021/09/10 09:03:35;;;;;;;12.18;9.30;;;21.50;98.30;;;;;;5055907;28;20075;-63
2021/09/10 09:06:01;;;;;;;10.27;9.10;;;21.60;98.20;;;;;;5055924;28;20025;-63
2021/09/10 09:08:26;;;;;;;10.68;8.63;;;21.60;98.00;;;;;;5037726;28;20033;-63
2021/09/10 09:10:54;;;;;;;10.23;7.13;;;21.60;97.80;;;;;;5037828;28;20028;-63
2021/09/10 09:13:20;;;;;;;7.43;6.22;;;21.80;97.70;;;;;;5055734;28;20028;-63
2021/09/10 09:15:46;;;;;;;6.95;5.72;;;22.00;97.50;;;;;;5037316;28;20028;-63
2021/09/10 09:18:12;;;;;;;6.45;5.15;;;22.30;97.30;;;;;;5055294;28;20029;-63
2021/09/10 09:20:38;;;;;;;8.48;7.25;;;22.40;97.00;;;;;;5055272;28;20626;-63
2021/09/10 09:23:10;;;;;;;6.30;5.40;;;22.60;96.70;;;;;;5037613;28;20074;-63
2021/09/10 09:25:43;;;;;;;7.38;5.75;;;22.70;96.30;;;;;;5045544;28;20500;-64
2021/09/10 09:28:29;;;;;;;6.45;5.28;;;22.80;96.20;;;;;;5052479;28;20067;-64
2021/09/10 09:30:59;;;;;;;11.02;6.47;;;22.90;95.90;;;;;;5055454;28;20024;-63
2021/09/10 09:33:26;;;;;;;10.35;7.43;;;23.00;95.30;;;;;;5067526;28;20028;-63
2021/09/10 09:35:56;;;;;;;9.07;6.88;;;23.10;94.70;;;;;;5056713;28;20052;-64
2021/09/10 09:38:26;;;;;;;7.68;6.43;;;23.10;94.50;;;;;;5074938;28;20040;-64
2021/09/10 09:40:59;;;;;;;10.95;8.90;;;23.20;94.10;;;;;;5051206;28;20020;-64
2021/09/10 09:43:29;;;;;;;8.93;8.02;;;23.30;93.80;;;;;;5074254;28;20038;-64
2021/09/10 09:45:55;;;;;;;8.85;7.65;;;23.30;93.40;;;;;;5074557;28;20024;-64
2021/09/10 09:48:23;;;;;;;6.70;5.47;;;23.30;93.40;;;;;;5069235;28;20111;-64
2021/09/10 09:50:52;;;;;;;7.53;6.07;;;23.50;93.30;;;;;;5074650;28;20021;-64
2021/09/10 09:53:18;;;;;;;8.80;6.57;;;23.80;93.00;;;;;;5069541;28;20020;-64
2021/09/10 09:55:45;;;;;;;8.13;5.45;;;24.00;92.60;;;;;;5064255;28;20029;-64
2021/09/10 09:58:11;;;;;;;8.70;6.20;;;24.30;92.20;;;;;;5056498;28;20023;-64
2021/09/10 10:00:38;;;;;;;7.25;6.30;;;24.30;91.50;;;;;;5056167;28;20029;-64
2021/09/10 10:03:04;;;;;;;5.35;4.60;;;24.40;90.90;;;;;;5068862;28;20135;-64
2021/09/10 10:05:32;;;;;;;7.38;4.78;;;24.30;90.90;;;;;;5074203;28;20025;-64
2021/09/10 10:08:09;;;;;;;7.50;4.93;;;24.40;91.00;;;;;;5068430;28;20103;-64
2021/09/10 10:10:42;;;;;;;5.90;4.78;;;24.40;90.60;;;;;;5063033;28;20035;-64
2021/09/10 10:13:13;;;;;;;6.40;4.35;;;24.40;90.70;;;;;;5074111;28;20112;-64
2021/09/10 10:15:45;;;;;;;5.97;4.35;;;24.40;90.80;;;;;;5074115;28;20483;-64
2021/09/10 10:18:11;;;;;;;7.97;5.40;;;24.50;90.80;;;;;;5074173;28;20473;-64
2021/09/10 10:20:45;;;;;;;6.18;4.35;;;24.40;90.60;;;;;;5055769;28;20033;-64
2021/09/10 10:23:42;;;;;;;7.72;4.65;;;24.50;90.40;;;;;;5071440;28;20021;-64
2021/09/10 10:26:14;;;;;;;9.00;6.22;;;24.40;90.40;;;;;;5070996;28;20452;-64
2021/09/10 10:28:44;;;;;;;7.35;6.55;;;24.40;90.50;;;;;;5055618;28;20048;-64
2021/09/10 10:31:10;;;;;;;8.07;5.60;;;24.40;90.40;;;;;;5068278;28;20049;-64
2021/09/10 10:34:05;;;;;;;6.22;4.63;;;24.30;90.40;;;;;;5073593;28;20025;-64
2021/09/10 10:36:38;;;;;;;6.15;4.57;;;24.60;90.50;;;;;;5073652;28;20035;-64
2021/09/10 10:39:13;;;;;;;6.18;5.25;;;24.80;90.30;;;;;;5064045;28;20021;-64
2021/09/10 10:41:46;;;;;;;7.50;5.25;;;25.00;89.50;;;;;;5073580;28;20520;-64
2021/09/10 10:44:35;;;;;;;7.40;5.80;;;24.90;88.60;;;;;;5043023;28;20497;-64
2021/09/10 10:47:11;;;;;;;6.93;4.88;;;24.70;88.40;;;;;;5036136;28;20476;-64
2021/09/10 10:49:42;;;;;;;6.70;4.57;;;24.70;89.00;;;;;;5055775;28;20477;-64
2021/09/10 10:52:31;;;;;;;3.67;2.88;;;24.70;89.30;;;;;;5070957;28;20031;-64
2021/09/10 10:55:22;;;;;;;4.32;3.03;;;24.90;89.30;;;;;;5069539;28;20017;-64
2021/09/10 10:58:14;;;;;;;6.45;3.92;;;25.00;89.00;;;;;;5046633;28;20116;-64
2021/09/10 11:00:44;;;;;;;5.60;3.20;;;25.00;88.90;;;;;;5053381;28;20381;-64
2021/09/10 11:03:18;;;;;;;5.80;3.83;;;25.40;88.60;;;;;;5053709;28;20017;-64
2021/09/10 11:05:50;;;;;;;5.15;3.38;;;26.00;87.00;;;;;;5060169;28;20021;-64
2021/09/10 11:08:44;;;;;;;7.05;4.65;;;26.10;86.20;;;;;;5062597;28;20025;-64
2021/09/10 11:11:10;;;;;;;4.57;3.58;;;26.30;85.60;;;;;;5030458;28;20055;-64
2021/09/10 11:13:41;;;;;;;6.25;4.10;;;26.10;85.80;;;;;;5053471;28;20028;-64
2021/09/10 11:16:10;;;;;;;5.20;3.80;;;26.00;85.70;;;;;;5053484;28;20035;-65
2021/09/10 11:18:37;;;;;;;5.00;3.78;;;25.80;85.80;;;;;;5053424;28;20158;-64
2021/09/10 11:21:06;;;;;;;4.82;3.65;;;25.80;86.00;;;;;;5053333;28;20054;-64
2021/09/10 11:23:37;;;;;;;4.53;3.83;;;25.70;86.90;;;;;;5053121;28;20043;-64
2021/09/10 11:26:07;;;;;;;3.95;2.97;;;25.70;86.20;;;;;;5053227;28;20057;-64
2021/09/10 11:28:34;;;;;;;4.20;3.10;;;25.60;86.20;;;;;;5035330;28;20082;-64
2021/09/10 11:30:59;;;;;;;4.03;3.63;;;25.60;86.10;;;;;;5053248;28;20021;-64
2021/09/10 11:33:26;;;;;;;5.38;4.25;;;25.40;85.20;;;;;;5053144;28;20024;-64
2021/09/10 11:35:53;;;;;;;5.18;3.25;;;25.20;85.40;;;;;;5041451;28;20048;-64
2021/09/10 11:38:23;;;;;;;5.38;3.90;;;25.20;86.00;;;;;;5069088;28;20036;-64
2021/09/10 11:40:56;;;;;;;7.45;3.75;;;25.30;86.20;;;;;;5066013;28;20034;-64
2021/09/10 11:43:24;;;;;;;6.38;4.60;;;25.40;86.00;;;;;;5033249;28;20081;-64
2021/09/10 11:45:54;;;;;;;3.85;3.22;;;25.60;85.60;;;;;;5033046;28;20017;-64
2021/09/10 11:48:30;;;;;;;4.00;3.13;;;25.70;85.30;;;;;;5032304;28;20059;-64
2021/09/10 11:51:00;;;;;;;4.10;2.65;;;25.70;85.20;;;;;;5032621;28;20105;-64
2021/09/10 11:53:46;;;;;;;4.55;3.20;;;25.60;85.20;;;;;;5031314;28;20017;-64
2021/09/10 11:56:31;;;;;;;4.32;3.20;;;25.50;85.20;;;;;;5034046;28;20021;-65
2021/09/10 11:58:56;;;;;;;4.82;4.05;;;25.40;85.50;;;;;;5030976;28;20029;-65
2021/09/10 12:01:28;;;;;;;9.32;4.95;;;25.30;86.30;;;;;;5032319;28;20025;-65
2021/09/10 12:03:57;;;;;;;6.28;3.88;;;25.10;87.10;;;;;;5032299;28;20389;-64
2021/09/10 12:06:24;;;;;;;6.75;5.13;;;24.90;87.50;;;;;;5030794;28;20028;-64
2021/09/10 12:09:16;;;;;;;8.10;4.95;;;24.50;88.90;;;;;;5032227;28;20438;-64
2021/09/10 12:12:02;;;;;;;6.53;5.00;;;24.20;90.20;;;;;;5032699;28;20059;-64
2021/09/10 12:14:32;;;;;;;6.72;5.25;;;23.90;90.90;;;;;;5047764;28;20017;-64
2021/09/10 12:17:06;;;;;;;10.70;6.05;;;23.70;91.70;;;;;;5033345;28;20108;-64
2021/09/10 12:19:32;;;;;;;9.45;5.95;;;23.40;92.30;;;;;;5032136;28;20143;-64
2021/09/10 12:21:57;;;;;;;9.38;6.00;;;23.10;93.20;;;;;;5032068;28;20174;-64
2021/09/10 12:24:23;;;;;;;11.60;7.00;;;22.80;93.70;;;;;;5034363;28;20123;-65
2021/09/10 12:26:53;;;;;;;11.70;8.27;;;22.60;94.60;;;;;;5031933;28;20401;-64
2021/09/10 12:29:23;;;;;;;8.63;5.95;;;22.30;95.50;;;;;;5031792;28;20060;-64
2021/09/10 12:31:48;;;;;;;;;;;22.10;96.20;;;;;;5032377;28;20477;-64
2021/09/10 12:34:14;;;;;;;9.75;7.32;;;21.80;96.70;;;;;;5014092;28;19912;-64